Terminal Aerodrome Forecast
Issued by NWS Bismarck, ND

Home | Current Version | Previous Version | Text Only | Print | Product List | Glossary On
Versions: 1 2 3 4 5 6 7 8 9 10 11 12 13 14 15 16 17 18 19 20 21 22 23 24
000
FTUS43 KBIS 231738
TAFISN
TAF
KISN 231738Z 2318/2418 23011KT P6SM OVC200
     FM240400 24009KT P6SM BKN130
     FM240600 24010KT P6SM BKN110
     FM240900 26014G22KT P6SM OVC080
     FM241100 29017G26KT P6SM BKN090=

USA.gov is the U.S. government's official web portal to all federal, state and local government web resources and services.